Terminal Aerodrome Forecast
Issued by NWS

Home | Current Version | Previous Version | Graphics & Text | Print | Product List | Glossary On
Versions: 1 2 3 4 5 6 7 8 9 10 11 12 13 14 15 16 17
696
FTUS43 KABR 231611 AAA
TAFMBG
TAF AMD
KMBG 231611Z 2316/2412 23011KT P6SM SCT100
     FM231800 33015G23KT P6SM FEW100
     FM240000 32005KT P6SM FEW250=

USA.gov is the U.S. government's official web portal to all federal, state and local government web resources and services.